KILM/ILM METAR and TAF weather

Enter ICAO airport designator
Station Type Date Time Source
KILM METAR 2020/03/31 06:53 UTC NOAA

KILM 310653Z AUTO 00000KT 10SM CLR 18/12 A2989 RMK AO2 SLP122 T01780117 TSNO


Station Type Date Time Source
KILM Decoded METAR 2020/03/31 06:53 UTC NOAA

WILMINGTON INT'L AIRPORT, NC, United States (KILM) 34-16N 077-54W 9M
Mar 31, 2020 - 02:53 AM EDT / 2020.03.31 0653 UTC
Wind: Calm:0
Visibility: 10 mile(s):0
Sky conditions: clear
Temperature: 64.0 F (17.8 C)
Dew Point: 53.1 F (11.7 C)
Relative Humidity: 67%
Pressure (altimeter): 29.89 in. Hg (1012 hPa)
ob: KILM 310653Z AUTO 00000KT 10SM CLR 18/12 A2989 RMK AO2 SLP122 T01780117 TSNO
cycle: 7

Station Type Date Time Source
KILM TAF 2020/03/31 06:42 UTC NOAA

TAF KILM 310539Z 3106/0106 04003KT P6SM OVC150
FM311600 06008KT P6SM VCSH OVC150
FM311800 08010KT 6SM -SHRA BR OVC040
FM312300 06013KT 5SM -SHRA BR OVC020
FM010000 06013KT 4SM SHRA BR OVC009
FM010500 02012G20KT 6SM -SHRA BR OVC010

Example: see airport list